Terminal Aerodrome Forecast
Issued by NWS Charleston, WV

Current Version | Previous Version | Graphics & Text | Print | Product List | Glossary On
Versions: 1 2 3 4 5 6 7 8 9 10 11 12 13 14 15 16 17 18 19 20 21 22 23 24 25 26
000
FTUS41 KRLX 260545
TAFBKW
TAF
KBKW 260545Z 2606/2706 00000KT 6SM BR SCT015
     FM260700 00000KT 5SM BR SCT025
     FM260900 00000KT 2SM BR SCT025
     FM261100 00000KT 1SM BR SCT001 SCT010
     FM261400 00000KT P6SM FEW010
     FM261500 00000KT P6SM FEW250
     FM270200 15011G18KT P6SM FEW250=

USA.gov is the U.S. government's official web portal to all federal, state and local government web resources and services.